createdAt,value
2023-01-12T00:01:52.721Z,8.46
2023-01-12T00:04:20.034Z,8.43
2023-01-12T00:06:47.289Z,8.43
2023-01-12T00:09:14.017Z,8.41
2023-01-12T00:11:41.056Z,8.37
2023-01-12T00:14:09.050Z,8.34
2023-01-12T00:16:35.996Z,8.35
2023-01-12T00:19:23.798Z,8.30
2023-01-12T00:21:58.555Z,8.17
2023-01-12T00:24:39.906Z,8.21
2023-01-12T00:27:09.681Z,8.16
2023-01-12T00:29:37.256Z,8.09
2023-01-12T00:32:05.924Z,8.03
2023-01-12T00:34:32.703Z,7.95
2023-01-12T00:37:04.796Z,7.89
2023-01-12T00:39:31.513Z,7.86
2023-01-12T00:41:57.993Z,7.80
2023-01-12T00:44:24.824Z,7.78
2023-01-12T00:46:51.444Z,7.72
2023-01-12T00:49:18.079Z,7.67
2023-01-12T00:51:44.637Z,7.61
2023-01-12T00:54:11.419Z,7.55
2023-01-12T00:56:38.872Z,7.50
2023-01-12T00:59:05.762Z,7.44
2023-01-12T01:01:33.563Z,7.37
2023-01-12T01:04:00.893Z,7.33
2023-01-12T01:06:27.444Z,7.25
2023-01-12T01:08:54.142Z,7.20
2023-01-12T01:11:20.702Z,7.14
2023-01-12T01:13:47.416Z,7.07
2023-01-12T01:16:15.720Z,7.00
2023-01-12T01:18:42.503Z,6.88
2023-01-12T01:21:11.088Z,6.88
2023-01-12T01:23:38.462Z,6.85
2023-01-12T01:26:10.561Z,6.79
2023-01-12T01:28:37.191Z,6.72
2023-01-12T01:31:11.666Z,6.69
2023-01-12T01:33:38.600Z,6.64
2023-01-12T01:36:06.203Z,6.60
2023-01-12T01:38:33.505Z,6.53
2023-01-12T01:41:00.221Z,6.49
2023-01-12T01:43:28.313Z,6.44
2023-01-12T01:46:10.969Z,6.38
2023-01-12T01:48:39.595Z,6.36
2023-01-12T01:51:11.946Z,6.30
2023-01-12T01:53:42.175Z,6.26
2023-01-12T01:56:12.947Z,6.23
2023-01-12T01:58:54.060Z,6.17
2023-01-12T02:01:21.010Z,6.17
2023-01-12T02:03:48.053Z,6.12
2023-01-12T02:06:15.329Z,6.09
2023-01-12T02:08:51.108Z,6.07
2023-01-12T02:11:18.252Z,6.09
2023-01-12T02:13:44.752Z,6.06
2023-01-12T02:16:27.942Z,6.04
2023-01-12T02:19:13.941Z,5.98
2023-01-12T02:22:15.727Z,5.95
2023-01-12T02:25:14.035Z,5.95
2023-01-12T02:27:50.976Z,5.92
2023-01-12T02:30:38.972Z,5.91
2023-01-12T02:33:05.439Z,5.86
2023-01-12T02:35:54.011Z,5.88
2023-01-12T02:38:31.173Z,5.88
2023-01-12T02:41:21.219Z,5.85
2023-01-12T02:43:47.826Z,5.83
2023-01-12T02:46:28.284Z,5.81
2023-01-12T02:48:58.207Z,5.80
2023-01-12T02:51:42.015Z,5.79
2023-01-12T02:54:12.284Z,5.77
2023-01-12T02:56:44.184Z,5.77
2023-01-12T02:59:40.132Z,5.75
2023-01-12T03:02:13.675Z,5.73
2023-01-12T03:04:40.448Z,5.71
2023-01-12T03:07:31.138Z,5.64
2023-01-12T03:10:20.579Z,5.60
2023-01-12T03:12:49.478Z,5.59
2023-01-12T03:15:18.702Z,5.55
2023-01-12T03:17:54.737Z,5.55
2023-01-12T03:20:28.438Z,5.53
2023-01-12T03:23:00.837Z,5.55
2023-01-12T03:25:31.025Z,5.54
2023-01-12T03:27:59.944Z,5.52
2023-01-12T03:30:35.214Z,5.49
2023-01-12T03:33:03.169Z,5.51
2023-01-12T03:35:35.189Z,5.49
2023-01-12T03:38:19.072Z,5.51
2023-01-12T03:40:57.577Z,5.54
2023-01-12T03:43:31.074Z,5.51
2023-01-12T03:46:23.312Z,5.50
2023-01-12T03:49:01.486Z,5.48
2023-01-12T03:51:33.948Z,5.50
2023-01-12T03:54:02.683Z,5.51
2023-01-12T03:56:33.616Z,5.50
2023-01-12T03:59:01.071Z,5.51
2023-01-12T04:01:27.659Z,5.50
2023-01-12T04:03:54.196Z,5.49
2023-01-12T04:06:21.083Z,5.49
2023-01-12T04:08:47.571Z,5.48
2023-01-12T04:11:14.104Z,5.48
2023-01-12T04:13:40.556Z,5.45
2023-01-12T04:16:07.279Z,5.44
2023-01-12T04:18:33.784Z,5.39
2023-01-12T04:21:00.400Z,5.39
2023-01-12T04:23:26.876Z,5.37
2023-01-12T04:25:53.376Z,5.37
2023-01-12T04:28:19.887Z,5.36
2023-01-12T04:30:46.357Z,5.36
2023-01-12T04:33:12.828Z,5.34
2023-01-12T04:35:39.308Z,5.33
2023-01-12T04:38:09.332Z,5.31
2023-01-12T04:40:35.988Z,5.30
2023-01-12T04:43:02.542Z,5.29
2023-01-12T04:45:31.519Z,5.26
2023-01-12T04:48:06.374Z,5.25
2023-01-12T04:50:33.325Z,5.23
2023-01-12T04:53:02.822Z,5.22
2023-01-12T04:55:29.430Z,5.19
2023-01-12T04:57:56.533Z,5.16
2023-01-12T05:00:23.486Z,5.13
2023-01-12T05:02:50.148Z,5.12
2023-01-12T05:05:16.729Z,5.08
2023-01-12T05:07:43.321Z,5.06
2023-01-12T05:10:10.535Z,5.03
2023-01-12T05:12:37.029Z,5.02
2023-01-12T05:15:03.829Z,4.99
2023-01-12T05:17:32.184Z,4.93
2023-01-12T05:20:00.784Z,4.94
2023-01-12T05:22:27.892Z,4.92
2023-01-12T05:24:54.567Z,4.91
2023-01-12T05:27:21.112Z,4.91
2023-01-12T05:29:47.617Z,4.89
2023-01-12T05:32:14.142Z,4.89
2023-01-12T05:34:40.756Z,4.88
2023-01-12T05:37:07.254Z,4.87
2023-01-12T05:39:33.919Z,4.89
2023-01-12T05:42:00.401Z,4.86
2023-01-12T05:44:27.037Z,4.87
2023-01-12T05:46:53.681Z,4.87
2023-01-12T05:49:20.228Z,4.86
2023-01-12T05:51:46.733Z,4.86
2023-01-12T05:54:13.240Z,4.86
2023-01-12T05:56:39.866Z,4.85
2023-01-12T05:59:06.440Z,4.85
2023-01-12T06:01:32.943Z,4.85
2023-01-12T06:04:01.111Z,4.79
2023-01-12T06:06:28.512Z,4.72
2023-01-12T06:08:55.087Z,4.73
2023-01-12T06:11:21.887Z,4.71
2023-01-12T06:13:48.360Z,4.71
2023-01-12T06:16:15.032Z,4.70
2023-01-12T06:18:41.931Z,4.71
2023-01-12T06:21:09.774Z,4.71
2023-01-12T06:23:36.614Z,4.72
2023-01-12T06:26:05.600Z,4.71
2023-01-12T06:28:32.245Z,4.72
2023-01-12T06:31:01.549Z,4.71
2023-01-12T06:33:29.330Z,4.71
2023-01-12T06:35:56.514Z,4.68
2023-01-12T06:38:25.431Z,4.65
2023-01-12T06:40:52.287Z,4.65
2023-01-12T06:43:19.416Z,4.66
2023-01-12T06:45:45.957Z,4.67
2023-01-12T06:48:12.450Z,4.69
2023-01-12T06:50:39.214Z,4.68
2023-01-12T06:53:06.619Z,4.70
2023-01-12T06:55:33.547Z,4.71
2023-01-12T06:58:04.284Z,4.73
2023-01-12T07:00:31.593Z,4.75
2023-01-12T07:02:58.373Z,4.79
2023-01-12T07:05:24.927Z,4.80
2023-01-12T07:07:57.908Z,4.78
2023-01-12T07:10:24.448Z,4.83
2023-01-12T07:12:51.054Z,4.84
2023-01-12T07:15:17.727Z,4.86
2023-01-12T07:17:44.183Z,4.88
2023-01-12T07:20:11.151Z,4.88
2023-01-12T07:22:37.818Z,4.84
2023-01-12T07:25:04.495Z,4.84
2023-01-12T07:27:30.978Z,4.83
2023-01-12T07:29:57.449Z,4.86
2023-01-12T07:32:26.794Z,4.87
2023-01-12T07:34:53.283Z,4.89
2023-01-12T07:37:19.777Z,4.95
2023-01-12T07:39:46.345Z,4.96
2023-01-12T07:42:12.856Z,5.00
2023-01-12T07:44:39.392Z,5.01
2023-01-12T07:47:05.935Z,5.07
2023-01-12T07:49:32.400Z,5.11
2023-01-12T07:51:58.991Z,5.17
2023-01-12T07:54:25.492Z,5.24
2023-01-12T07:56:52.074Z,5.29
2023-01-12T07:59:18.854Z,5.34
2023-01-12T08:01:45.577Z,5.40
2023-01-12T08:04:12.225Z,5.45
2023-01-12T08:06:39.285Z,5.50
2023-01-12T08:09:05.928Z,5.53
2023-01-12T08:11:32.710Z,5.56
2023-01-12T08:13:59.391Z,5.59
2023-01-12T08:16:33.810Z,5.61
2023-01-12T08:19:05.334Z,5.64
2023-01-12T08:21:36.904Z,5.68
2023-01-12T08:24:06.225Z,5.71
2023-01-12T08:26:38.308Z,5.73
2023-01-12T08:29:13.172Z,5.76
2023-01-12T08:31:40.293Z,5.80
2023-01-12T08:34:08.639Z,5.84
2023-01-12T08:36:36.916Z,5.86
2023-01-12T08:39:03.650Z,5.90
2023-01-12T08:41:31.012Z,5.94
2023-01-12T08:43:57.660Z,5.97
2023-01-12T08:46:24.360Z,6.00
2023-01-12T08:48:50.851Z,6.06
2023-01-12T08:51:17.377Z,6.10
2023-01-12T08:53:43.992Z,6.15
2023-01-12T08:56:10.609Z,6.17
2023-01-12T08:58:37.180Z,6.24
2023-01-12T09:01:08.356Z,6.31
2023-01-12T09:03:36.463Z,6.39
2023-01-12T09:06:13.993Z,6.48
2023-01-12T09:08:40.771Z,6.53
2023-01-12T09:11:08.205Z,6.63
2023-01-12T09:13:35.601Z,6.72
2023-01-12T09:16:12.641Z,6.79
2023-01-12T09:18:40.358Z,6.85
2023-01-12T09:21:09.604Z,6.93
2023-01-12T09:23:36.974Z,7.01
2023-01-12T09:26:08.000Z,7.08
2023-01-12T09:28:35.061Z,7.14
2023-01-12T09:31:10.169Z,7.16
2023-01-12T09:33:38.540Z,7.22
2023-01-12T09:36:09.965Z,7.28
2023-01-12T09:38:38.883Z,7.37
2023-01-12T09:41:17.448Z,7.44
2023-01-12T09:43:44.357Z,7.50
2023-01-12T09:46:18.132Z,7.52
2023-01-12T09:48:44.884Z,7.61
2023-01-12T09:51:25.948Z,7.68
2023-01-12T09:53:52.549Z,7.73
2023-01-12T09:56:26.018Z,7.80
2023-01-12T09:59:34.607Z,7.84
2023-01-12T10:02:01.295Z,7.91
2023-01-12T10:04:27.981Z,7.95
2023-01-12T10:06:54.621Z,7.99
2023-01-12T10:09:22.691Z,8.04
2023-01-12T10:12:05.975Z,8.01
2023-01-12T10:15:11.082Z,8.09
2023-01-12T10:17:56.429Z,8.13
2023-01-12T10:20:23.002Z,8.18
2023-01-12T10:22:58.313Z,8.12
2023-01-12T10:25:37.248Z,8.20
2023-01-12T10:28:34.298Z,8.26
2023-01-12T10:31:01.321Z,8.36
2023-01-12T10:33:30.949Z,8.44
2023-01-12T10:36:08.698Z,8.46
2023-01-12T10:38:40.283Z,8.51
2023-01-12T10:41:17.381Z,8.57
2023-01-12T10:44:16.290Z,8.62
2023-01-12T10:46:43.221Z,8.69
2023-01-12T10:49:23.749Z,8.79
2023-01-12T10:51:52.918Z,8.85
2023-01-12T10:54:22.560Z,8.90
2023-01-12T10:57:05.795Z,8.93
2023-01-12T10:59:39.148Z,8.99
2023-01-12T11:02:05.869Z,9.03
2023-01-12T11:04:43.517Z,9.06
2023-01-12T11:07:27.577Z,9.10
2023-01-12T11:09:55.637Z,9.11
2023-01-12T11:12:35.287Z,9.13
2023-01-12T11:15:10.908Z,9.17
2023-01-12T11:17:55.801Z,9.17
2023-01-12T11:20:31.340Z,9.23
2023-01-12T11:23:03.861Z,9.30
2023-01-12T11:25:35.425Z,9.35
2023-01-12T11:28:10.499Z,9.41
2023-01-12T11:30:43.726Z,9.49
2023-01-12T11:33:12.557Z,9.52
2023-01-12T11:35:51.676Z,9.59
2023-01-12T11:38:26.312Z,9.63
2023-01-12T11:40:56.218Z,9.69
2023-01-12T11:43:28.832Z,9.73
2023-01-12T11:46:07.539Z,9.75
2023-01-12T11:48:42.612Z,9.83
2023-01-12T11:51:12.484Z,9.86
2023-01-12T11:53:41.468Z,9.88
2023-01-12T11:56:55.675Z,9.91
2023-01-12T11:59:45.759Z,9.98
2023-01-12T12:02:33.690Z,10.05
2023-01-12T12:05:15.367Z,10.10
2023-01-12T12:07:49.826Z,10.15
2023-01-12T12:10:47.349Z,10.13
2023-01-12T12:13:26.940Z,10.19
2023-01-12T12:16:19.716Z,10.14
2023-01-12T12:19:01.915Z,10.23
2023-01-12T12:21:47.527Z,10.25
2023-01-12T12:24:29.312Z,10.31
2023-01-12T12:27:35.623Z,10.30
2023-01-12T12:30:26.771Z,10.36
2023-01-12T12:33:08.428Z,10.39
2023-01-12T12:36:01.808Z,10.44
2023-01-12T12:39:06.677Z,10.48
2023-01-12T12:41:41.349Z,10.49
2023-01-12T12:44:14.091Z,10.50
2023-01-12T12:46:59.398Z,10.53
2023-01-12T12:49:29.882Z,10.57
2023-01-12T12:51:57.850Z,10.60
2023-01-12T12:54:25.547Z,10.59
2023-01-12T12:56:52.255Z,10.62
2023-01-12T12:59:33.595Z,10.64
2023-01-12T13:02:03.082Z,10.64
2023-01-12T13:04:44.924Z,10.65
2023-01-12T13:07:17.008Z,10.66
2023-01-12T13:09:43.857Z,10.73
2023-01-12T13:12:31.239Z,10.76
2023-01-12T13:15:22.486Z,10.74
2023-01-12T13:17:50.761Z,10.80
2023-01-12T13:20:25.759Z,10.78
2023-01-12T13:22:55.405Z,10.72
2023-01-12T13:25:21.893Z,10.82
2023-01-12T13:27:57.278Z,10.84
2023-01-12T13:30:26.860Z,10.81
2023-01-12T13:32:53.299Z,10.84
2023-01-12T13:35:49.185Z,10.84
2023-01-12T13:38:34.077Z,10.85
2023-01-12T13:41:29.918Z,10.85
2023-01-12T13:43:57.995Z,10.92
2023-01-12T13:46:35.396Z,10.94
2023-01-12T13:49:02.954Z,10.95
2023-01-12T13:51:38.793Z,10.95
2023-01-12T13:54:14.108Z,10.94
2023-01-12T13:56:41.575Z,10.95
2023-01-12T13:59:17.879Z,10.92
2023-01-12T14:01:47.478Z,10.88
2023-01-12T14:04:14.048Z,10.84
2023-01-12T14:07:02.264Z,10.79
2023-01-12T14:10:04.536Z,10.79
2023-01-12T14:12:52.215Z,10.77
2023-01-12T14:15:38.660Z,10.71
2023-01-12T14:18:13.065Z,10.67
2023-01-12T14:20:48.558Z,10.64
2023-01-12T14:23:28.093Z,10.59
2023-01-12T14:26:14.537Z,10.57
2023-01-12T14:28:43.497Z,10.53
2023-01-12T14:31:36.127Z,10.41
2023-01-12T14:34:05.158Z,10.45
2023-01-12T14:36:41.429Z,10.44
2023-01-12T14:39:15.942Z,10.44
2023-01-12T14:41:50.648Z,10.42
2023-01-12T14:44:20.871Z,10.41
2023-01-12T14:46:53.428Z,10.36
2023-01-12T14:49:25.669Z,10.35
2023-01-12T14:51:57.100Z,10.35
2023-01-12T14:54:30.933Z,10.31
2023-01-12T14:57:03.356Z,10.31
2023-01-12T14:59:33.745Z,10.29
2023-01-12T15:02:29.311Z,10.22
2023-01-12T15:05:09.941Z,10.18
2023-01-12T15:07:39.754Z,10.15
2023-01-12T15:10:08.820Z,10.15
2023-01-12T15:12:38.409Z,10.11
2023-01-12T15:15:20.418Z,10.04
2023-01-12T15:17:48.356Z,10.06
2023-01-12T15:20:14.891Z,9.99
2023-01-12T15:22:41.552Z,9.99
2023-01-12T15:25:13.368Z,9.94
2023-01-12T15:27:40.024Z,9.96
2023-01-12T15:30:08.148Z,9.91
2023-01-12T15:32:51.877Z,9.82
2023-01-12T15:35:21.896Z,9.87
2023-01-12T15:37:48.461Z,9.85
2023-01-12T15:40:15.157Z,9.84
2023-01-12T15:42:41.988Z,9.82
2023-01-12T15:45:18.362Z,9.77
2023-01-12T15:47:44.887Z,9.77
2023-01-12T15:50:11.561Z,9.75
2023-01-12T15:52:38.210Z,9.73
2023-01-12T15:55:05.262Z,9.72
2023-01-12T15:57:31.989Z,9.70
2023-01-12T15:59:58.584Z,9.67
2023-01-12T16:02:34.987Z,9.65
2023-01-12T16:05:03.637Z,9.65
2023-01-12T16:07:30.208Z,9.68
2023-01-12T16:09:56.979Z,9.61
2023-01-12T16:12:24.611Z,9.63
2023-01-12T16:14:51.143Z,9.56
2023-01-12T16:17:17.801Z,9.57
2023-01-12T16:19:44.312Z,9.58
2023-01-12T16:22:24.900Z,9.56
2023-01-12T16:24:52.847Z,9.53
2023-01-12T16:27:21.858Z,9.52
2023-01-12T16:29:48.532Z,9.54
2023-01-12T16:32:15.737Z,9.55
2023-01-12T16:34:42.360Z,9.55
2023-01-12T16:37:12.801Z,9.44
2023-01-12T16:39:39.720Z,9.50
2023-01-12T16:42:06.168Z,9.55
2023-01-12T16:44:34.642Z,9.57
2023-01-12T16:47:01.144Z,9.57
2023-01-12T16:49:27.728Z,9.59
2023-01-12T16:51:54.313Z,9.56
2023-01-12T16:54:20.852Z,9.55
2023-01-12T16:56:47.613Z,9.54
2023-01-12T16:59:14.407Z,9.52
2023-01-12T17:01:41.207Z,9.49
2023-01-12T17:04:07.903Z,9.46
2023-01-12T17:06:34.741Z,9.43
2023-01-12T17:09:01.833Z,9.40
2023-01-12T17:11:28.517Z,9.36
2023-01-12T17:13:56.810Z,9.35
2023-01-12T17:16:25.845Z,9.31
2023-01-12T17:18:52.541Z,9.30
2023-01-12T17:21:20.323Z,9.29
2023-01-12T17:23:47.549Z,9.26
2023-01-12T17:26:17.339Z,9.25
2023-01-12T17:28:45.193Z,9.25
2023-01-12T17:31:14.828Z,9.19
2023-01-12T17:33:42.022Z,9.22
2023-01-12T17:36:11.032Z,9.20
2023-01-12T17:38:37.952Z,9.19
2023-01-12T17:41:09.364Z,9.15
2023-01-12T17:43:36.185Z,9.17
2023-01-12T17:46:02.729Z,9.16
2023-01-12T17:48:29.348Z,9.15
2023-01-12T17:50:55.909Z,9.15
2023-01-12T17:53:22.391Z,9.15
2023-01-12T17:55:50.369Z,9.16
2023-01-12T17:58:17.508Z,9.16
2023-01-12T18:00:44.224Z,9.15
2023-01-12T18:03:10.789Z,9.14
2023-01-12T18:05:37.301Z,9.12
2023-01-12T18:08:03.814Z,9.09
2023-01-12T18:10:30.443Z,9.07
2023-01-12T18:12:57.012Z,9.04
2023-01-12T18:15:23.676Z,9.04
2023-01-12T18:17:50.342Z,9.02
2023-01-12T18:20:17.203Z,8.99
2023-01-12T18:22:44.816Z,8.96
2023-01-12T18:25:11.451Z,8.92
2023-01-12T18:27:41.997Z,8.88
2023-01-12T18:30:09.095Z,8.82
2023-01-12T18:32:35.656Z,8.73
2023-01-12T18:35:02.533Z,8.75
2023-01-12T18:37:29.314Z,8.72
2023-01-12T18:39:55.862Z,8.69
2023-01-12T18:42:22.520Z,8.66
2023-01-12T18:44:49.076Z,8.65
2023-01-12T18:47:16.863Z,8.64
2023-01-12T18:49:44.017Z,8.60
2023-01-12T18:52:12.241Z,8.58
2023-01-12T18:54:38.996Z,8.57
2023-01-12T18:57:05.620Z,8.55
2023-01-12T18:59:32.119Z,8.52
2023-01-12T19:01:58.737Z,8.49
2023-01-12T19:04:28.166Z,8.47
2023-01-12T19:06:54.721Z,8.44
2023-01-12T19:09:21.430Z,8.40
2023-01-12T19:11:47.986Z,8.37
2023-01-12T19:26:20.223Z,8.15
2023-01-12T19:28:46.894Z,8.12
2023-01-12T19:31:13.904Z,8.09
2023-01-12T19:33:40.968Z,8.08
2023-01-12T19:36:10.027Z,8.05
2023-01-12T19:38:37.446Z,8.03
2023-01-12T19:41:05.770Z,8.01
2023-01-12T19:43:32.279Z,8.00
2023-01-12T19:46:01.163Z,7.99
2023-01-12T19:48:28.651Z,7.95
2023-01-12T19:50:55.304Z,7.93
2023-01-12T19:53:24.805Z,7.91
2023-01-12T19:55:51.968Z,7.91
2023-01-12T19:58:19.501Z,7.89
2023-01-12T20:00:46.134Z,7.86
2023-01-12T20:03:15.230Z,7.82
2023-01-12T20:05:43.012Z,7.79
2023-01-12T20:08:10.689Z,7.75
2023-01-12T20:10:37.309Z,7.72
2023-01-12T20:13:05.156Z,7.70
2023-01-12T20:15:32.282Z,7.65
2023-01-12T20:17:59.374Z,7.63
2023-01-12T20:20:26.851Z,7.60
2023-01-12T20:22:53.887Z,7.58
2023-01-12T20:25:21.524Z,7.54
2023-01-12T20:27:49.414Z,7.51
2023-01-12T20:30:31.971Z,7.48
2023-01-12T20:33:03.310Z,7.44
2023-01-12T20:35:30.937Z,7.42
2023-01-12T20:37:57.443Z,7.38
2023-01-12T20:40:24.179Z,7.37
2023-01-12T20:42:50.707Z,7.34
2023-01-12T20:45:17.172Z,7.29
2023-01-12T20:47:43.649Z,7.24
2023-01-12T20:50:11.857Z,7.21
2023-01-12T20:52:38.471Z,7.14
2023-01-12T20:55:05.553Z,7.08
2023-01-12T20:57:35.022Z,7.03
2023-01-12T21:00:01.915Z,6.97
2023-01-12T21:02:28.462Z,6.92
2023-01-12T21:04:55.003Z,6.89
2023-01-12T21:07:21.910Z,6.86
2023-01-12T21:09:48.550Z,6.84
2023-01-12T21:12:15.061Z,6.82
2023-01-12T21:14:41.794Z,6.79
2023-01-12T21:17:08.348Z,6.78
2023-01-12T21:19:34.975Z,6.77
2023-01-12T21:22:01.648Z,6.75
2023-01-12T21:24:28.364Z,6.75
2023-01-12T21:26:55.148Z,6.76
2023-01-12T21:29:22.135Z,6.74
2023-01-12T21:31:48.735Z,6.76
2023-01-12T21:34:15.375Z,6.70
2023-01-12T21:36:41.847Z,6.70
2023-01-12T21:39:08.571Z,6.73
2023-01-12T21:41:35.080Z,6.70
2023-01-12T21:44:02.940Z,6.69
2023-01-12T21:46:29.706Z,6.67
2023-01-12T21:48:56.336Z,6.62
2023-01-12T21:51:22.993Z,6.61
2023-01-12T21:53:49.477Z,6.58
2023-01-12T21:56:15.979Z,6.57
2023-01-12T21:58:42.523Z,6.52
2023-01-12T22:01:11.691Z,6.53
2023-01-12T22:03:38.775Z,6.48
2023-01-12T22:06:07.846Z,6.46
2023-01-12T22:08:36.576Z,6.47
2023-01-12T22:11:11.712Z,6.48
2023-01-12T22:13:39.266Z,6.50
2023-01-12T22:16:08.448Z,6.53
2023-01-12T22:18:35.713Z,6.58
2023-01-12T22:21:04.436Z,6.61
2023-01-12T22:23:31.255Z,6.63
2023-01-12T22:26:02.385Z,6.67
2023-01-12T22:28:29.103Z,6.74
2023-01-12T22:30:55.664Z,6.77
2023-01-12T22:33:22.225Z,6.81
2023-01-12T22:35:48.906Z,6.85
2023-01-12T22:38:15.669Z,6.89
2023-01-12T22:40:42.280Z,6.93
2023-01-12T22:43:09.145Z,6.97
2023-01-12T22:45:35.739Z,7.00
2023-01-12T22:48:02.429Z,7.03
2023-01-12T22:50:28.960Z,7.05
2023-01-12T22:52:55.744Z,7.07
2023-01-12T22:55:24.317Z,7.09
2023-01-12T22:57:51.288Z,7.13
2023-01-12T23:00:19.363Z,7.13
2023-01-12T23:02:46.183Z,7.14
2023-01-12T23:05:12.673Z,7.16
2023-01-12T23:07:39.220Z,7.17
2023-01-12T23:10:06.570Z,7.18
2023-01-12T23:12:33.085Z,7.17
2023-01-12T23:14:59.564Z,7.20
2023-01-12T23:17:26.157Z,7.23
2023-01-12T23:19:52.570Z,7.26
2023-01-12T23:22:19.165Z,7.28
2023-01-12T23:24:45.621Z,7.30
2023-01-12T23:27:12.069Z,7.32
2023-01-12T23:29:38.528Z,7.34
2023-01-12T23:32:05.345Z,7.37
2023-01-12T23:34:31.890Z,7.40
2023-01-12T23:36:58.469Z,7.43
2023-01-12T23:39:24.925Z,7.48
2023-01-12T23:41:51.538Z,7.50
2023-01-12T23:44:18.203Z,7.55
2023-01-12T23:46:44.663Z,7.58
2023-01-12T23:49:11.423Z,7.60
2023-01-12T23:51:38.017Z,7.62
2023-01-12T23:54:04.827Z,7.65
2023-01-12T23:56:33.127Z,7.63
2023-01-12T23:58:59.624Z,7.68
